Flugplatz Paderborn Lippstadt

Bericht für EDLP

vom 25.09. um 09:50 UTC

Wind 18 kt aus 230°

Sichtweite 10 km oder mehr

gering bewölkt in 3500 ft

Temperatur 12.0°C

Taupunkt 4.0°C

Luftfeuchtigkeit 58%

Luftdruck 998 hPa

EDLP 250950Z 23018KT 9999 FEW035 12/04 Q0998

Prognose für EDLP

vom 25.09. um 05:00 UTC

Zwischen 06:00 UTC und 15:00 UTC

Wind 10 kt aus 230°

Sichtweite 10 km oder mehr

aufgelockert bewölkt in 3500 ft


Zwischen 15:00 und 18:00 UTC übergehend zu

Wind 4 kt aus 170°

Sichtweite 10 km oder mehr

aufgelockert bewölkt in 3500 ft

TAF EDLP 250500Z 2506/2606 23010KT 9999 SCT035 BECMG 2515/2518 17004KT
Impressum